Time;durP1;ratioP1;P1;durP2;ratioP2;P2;SDS_P1;SDS_P2;PMS_P1;PMS_P2;Temp;Humidity;BMP_temperature;BMP_pressure;BME280_temperature;BME280_humidity;BME280_pressure;Samples;Min_cycle;Max_cycle;Signal;HPM_P1;HPM_P2
2021/12/16 00:01:42;;;;;;;;;;;7.30;99.90;;;;;;5023607;28;19922;-39
2021/12/16 00:08:57;;;;;;;;;;;7.30;99.90;;;;;;5024353;28;19999;-40
2021/12/16 00:19:25;;;;;;;;;;;7.30;99.90;;;;;;5030799;28;19921;-40
2021/12/16 00:20:21;;;;;;;;;;;7.40;99.90;;;;;;5003307;28;19921;-40
2021/12/16 00:33:37;;;;;;;;;;;7.40;99.90;;;;;;4983997;28;20418;-40
2021/12/16 00:36:04;;;;;;;;;;;7.40;99.90;;;;;;4996241;28;19921;-40
2021/12/16 00:38:31;;;;;;;;;;;7.40;99.90;;;;;;5013846;28;19925;-40
2021/12/16 00:41:00;;;;;;;;;;;7.40;99.90;;;;;;5024000;28;19921;-41
2021/12/16 00:43:33;;;;;;;;;;;7.40;99.90;;;;;;5014468;28;19925;-40
2021/12/16 00:46:13;;;;;;;;;;;7.40;99.90;;;;;;5015555;28;20427;-40
2021/12/16 00:49:02;;;;;;;;;;;7.40;99.90;;;;;;5032102;28;20363;-40
2021/12/16 00:54:11;;;;;;;;;;;7.40;99.90;;;;;;4979182;28;19921;-40
2021/12/16 00:56:40;;;;;;;;;;;7.40;99.90;;;;;;5010042;28;19954;-40
2021/12/16 00:59:09;;;;;;;;;;;7.40;99.90;;;;;;5005093;28;19975;-40
2021/12/16 01:01:42;;;;;;;;;;;7.50;99.90;;;;;;5010180;28;20004;-40
2021/12/16 01:04:28;;;;;;;;;;;7.50;99.90;;;;;;5006962;28;20007;-40
2021/12/16 01:07:14;;;;;;;;;;;7.50;99.90;;;;;;5031905;28;19921;-40
2021/12/16 01:33:26;;;;;;;;;;;7.50;99.90;;;;;;5010886;28;19971;-40
2021/12/16 01:34:54;;;;;;;;;;;7.40;99.90;;;;;;5035060;28;20233;-40
2021/12/16 01:40:17;;;;;;;;;;;7.40;99.90;;;;;;5000011;28;20293;-40
2021/12/16 01:45:40;;;;;;;;;;;7.40;99.90;;;;;;4969894;28;20358;-40
2021/12/16 01:50:51;;;;;;;;;;;7.50;99.90;;;;;;4986520;28;19988;-42
2021/12/16 01:53:36;;;;;;;;;;;7.40;99.90;;;;;;5017008;28;19932;-41
2021/12/16 01:56:17;;;;;;;;;;;7.40;99.90;;;;;;5010884;28;19927;-40
2021/12/16 01:58:45;;;;;;;;;;;7.50;99.90;;;;;;5005224;28;19999;-40
2021/12/16 02:01:17;;;;;;;;;;;7.40;99.90;;;;;;5018024;28;19964;-40
2021/12/16 02:03:47;;;;;;;;;;;7.40;99.90;;;;;;5014013;28;19921;-42
2021/12/16 02:06:37;;;;;;;;;;;7.40;99.90;;;;;;5008989;28;19929;-41
2021/12/16 02:09:05;;;;;;;;;;;7.50;99.90;;;;;;5031048;28;19925;-40
2021/12/16 02:11:47;;;;;;;;;;;7.50;99.90;;;;;;5032163;28;19920;-40
2021/12/16 02:28:23;;;;;;;;;;;7.30;99.90;;;;;;5023082;28;19921;-41
2021/12/16 02:36:25;;;;;;;;;;;7.30;99.90;;;;;;5002050;28;20018;-41
2021/12/16 02:38:54;;;;;;;;;;;7.20;99.90;;;;;;5009851;28;19921;-40
2021/12/16 02:41:21;;;;;;;;;;;7.20;99.90;;;;;;5033199;28;19928;-40
2021/12/16 02:49:16;;;;;;;;;;;7.20;99.90;;;;;;5029036;28;19972;-37
2021/12/16 02:51:44;;;;;;;;;;;7.20;99.90;;;;;;5031486;28;20351;-44
2021/12/16 02:54:12;;;;;;;;;;;7.10;99.90;;;;;;5022187;28;19922;-41
2021/12/16 02:56:39;;;;;;;;;;;7.10;99.90;;;;;;5013983;28;20016;-41
2021/12/16 02:59:05;;;;;;;;;;;7.10;99.90;;;;;;5028678;28;20016;-41
2021/12/16 03:01:38;;;;;;;;;;;7.10;99.90;;;;;;5015037;28;20258;-40
2021/12/16 03:04:07;;;;;;;;;;;7.10;99.90;;;;;;5024090;28;19952;-41
2021/12/16 03:06:34;;;;;;;;;;;7.00;99.90;;;;;;5005042;28;19925;-41
2021/12/16 03:09:01;;;;;;;;;;;7.00;99.90;;;;;;5008975;28;20004;-41
2021/12/16 03:11:39;;;;;;;;;;;7.10;99.90;;;;;;4991366;28;19972;-40
2021/12/16 03:14:25;;;;;;;;;;;7.00;99.90;;;;;;5013038;28;20305;-39
2021/12/16 03:17:04;;;;;;;;;;;7.00;99.90;;;;;;5004765;28;19931;-39
2021/12/16 03:19:42;;;;;;;;;;;7.00;99.90;;;;;;5010377;28;19921;-40
2021/12/16 03:22:18;;;;;;;;;;;7.00;99.90;;;;;;5011943;28;19921;-40
2021/12/16 03:25:12;;;;;;;;;;;7.00;99.90;;;;;;5009181;28;19969;-40
2021/12/16 03:33:28;;;;;;;;;;;7.00;99.90;;;;;;4987347;28;19929;-41
2021/12/16 03:36:05;;;;;;;;;;;7.00;99.90;;;;;;5005961;28;20345;-39
2021/12/16 03:38:32;;;;;;;;;;;7.00;99.90;;;;;;5000853;28;19963;-41
2021/12/16 03:40:59;;;;;;;;;;;7.10;99.90;;;;;;4998184;28;20013;-41
2021/12/16 03:43:28;;;;;;;;;;;7.10;99.90;;;;;;5011838;28;19921;-40
2021/12/16 03:48:44;;;;;;;;;;;7.10;99.90;;;;;;4995864;28;20014;-40
2021/12/16 03:51:15;;;;;;;;;;;7.10;99.90;;;;;;4987890;28;19937;-41
2021/12/16 03:53:43;;;;;;;;;;;7.10;99.90;;;;;;4999310;28;19921;-40
2021/12/16 03:56:10;;;;;;;;;;;7.10;99.90;;;;;;5009490;28;19929;-39
2021/12/16 03:58:38;;;;;;;;;;;7.10;99.90;;;;;;5003211;28;20305;-40
2021/12/16 04:01:05;;;;;;;;;;;7.10;99.90;;;;;;4992097;28;19921;-40
2021/12/16 04:03:32;;;;;;;;;;;7.00;99.90;;;;;;4995724;28;19922;-41
2021/12/16 04:05:59;;;;;;;;;;;7.10;99.90;;;;;;5003978;28;19921;-39
2021/12/16 04:08:26;;;;;;;;;;;7.00;99.90;;;;;;4983300;28;20408;-39
2021/12/16 04:11:01;;;;;;;;;;;7.00;99.90;;;;;;5005569;28;20293;-40
2021/12/16 04:13:27;;;;;;;;;;;7.00;99.90;;;;;;5010524;28;20336;-39
2021/12/16 04:15:55;;;;;;;;;;;7.00;99.90;;;;;;4995228;28;20059;-41
2021/12/16 04:18:22;;;;;;;;;;;6.90;99.90;;;;;;4988796;28;19976;-40
2021/12/16 04:20:49;;;;;;;;;;;6.90;99.90;;;;;;5011828;28;20019;-39
2021/12/16 04:23:18;;;;;;;;;;;6.90;99.90;;;;;;4995162;28;19921;-39
2021/12/16 04:25:48;;;;;;;;;;;6.90;99.90;;;;;;4993869;28;19921;-41
2021/12/16 04:28:16;;;;;;;;;;;6.90;99.90;;;;;;5012455;28;19926;-39
2021/12/16 04:30:43;;;;;;;;;;;6.80;99.90;;;;;;4994448;28;19932;-40
2021/12/16 04:33:11;;;;;;;;;;;6.80;99.90;;;;;;4994278;28;19921;-40
2021/12/16 04:35:38;;;;;;;;;;;6.80;99.90;;;;;;4992901;28;19993;-40
2021/12/16 04:38:04;;;;;;;;;;;6.80;99.90;;;;;;4996953;28;19925;-40
2021/12/16 04:40:31;;;;;;;;;;;6.80;99.90;;;;;;4998139;28;19926;-41
2021/12/16 04:43:01;;;;;;;;;;;6.80;99.90;;;;;;5016516;28;19925;-40
2021/12/16 04:45:28;;;;;;;;;;;6.90;99.90;;;;;;5012790;28;20001;-39
2021/12/16 04:47:54;;;;;;;;;;;6.80;99.90;;;;;;5010041;28;19968;-39
2021/12/16 04:50:23;;;;;;;;;;;6.80;99.90;;;;;;4986444;28;19922;-40
2021/12/16 04:52:49;;;;;;;;;;;6.70;99.90;;;;;;5009120;28;19921;-40
2021/12/16 04:55:16;;;;;;;;;;;6.70;99.90;;;;;;5014805;28;20020;-39
2021/12/16 04:57:43;;;;;;;;;;;6.70;99.90;;;;;;4998961;28;19922;-39
2021/12/16 05:00:12;;;;;;;;;;;6.70;99.90;;;;;;5015116;28;19928;-40
2021/12/16 05:02:38;;;;;;;;;;;6.70;99.90;;;;;;5008914;28;20412;-39
2021/12/16 05:05:06;;;;;;;;;;;6.70;99.90;;;;;;5011196;28;19927;-39
2021/12/16 05:07:34;;;;;;;;;;;6.60;99.90;;;;;;5006594;28;19976;-40
2021/12/16 05:10:06;;;;;;;;;;;6.60;99.90;;;;;;5013592;28;19921;-40
2021/12/16 05:12:35;;;;;;;;;;;6.60;99.90;;;;;;5014788;28;20449;-40
2021/12/16 05:15:04;;;;;;;;;;;6.60;99.90;;;;;;5015180;28;20341;-40
2021/12/16 05:17:38;;;;;;;;;;;6.50;99.90;;;;;;5014488;28;19929;-40
2021/12/16 05:20:08;;;;;;;;;;;6.60;99.90;;;;;;4995642;28;19928;-40
2021/12/16 05:25:31;;;;;;;;;;;6.50;99.90;;;;;;5015486;28;19921;-40
2021/12/16 05:27:58;;;;;;;;;;;6.50;99.90;;;;;;5012635;28;19937;-42
2021/12/16 05:30:24;;;;;;;;;;;6.50;99.90;;;;;;5013723;28;19964;-40
2021/12/16 05:32:51;;;;;;;;;;;6.40;99.90;;;;;;4992794;28;20027;-40
2021/12/16 05:35:19;;;;;;;;;;;6.40;99.90;;;;;;5014586;28;20424;-40
2021/12/16 05:37:48;;;;;;;;;;;6.40;99.90;;;;;;4988937;28;19928;-40
2021/12/16 05:40:15;;;;;;;;;;;6.40;99.90;;;;;;4978697;28;19976;-40
2021/12/16 05:42:42;;;;;;;;;;;6.40;99.90;;;;;;5007616;28;19921;-41
2021/12/16 05:45:09;;;;;;;;;;;6.40;99.90;;;;;;5013305;28;20007;-43
2021/12/16 05:47:36;;;;;;;;;;;6.40;99.90;;;;;;5014965;28;20366;-40
2021/12/16 05:50:03;;;;;;;;;;;6.40;99.90;;;;;;5006003;28;19925;-41
2021/12/16 05:52:30;;;;;;;;;;;6.40;99.90;;;;;;5008154;28;20378;-40
2021/12/16 05:54:58;;;;;;;;;;;6.40;99.90;;;;;;5002843;28;19922;-41
2021/12/16 05:57:29;;;;;;;;;;;6.40;99.90;;;;;;5009592;28;20479;-41
2021/12/16 05:59:56;;;;;;;;;;;6.50;99.90;;;;;;5008203;28;19975;-40
2021/12/16 06:02:23;;;;;;;;;;;6.50;99.90;;;;;;5012932;28;20388;-42
2021/12/16 06:04:50;;;;;;;;;;;6.50;99.90;;;;;;5011396;28;20282;-40
2021/12/16 06:07:17;;;;;;;;;;;6.50;99.90;;;;;;5006488;28;19968;-41
2021/12/16 06:09:44;;;;;;;;;;;6.50;99.90;;;;;;5031416;28;19968;-41
2021/12/16 06:12:13;;;;;;;;;;;6.50;99.90;;;;;;5034557;28;19921;-41
2021/12/16 06:14:50;;;;;;;;;;;6.50;99.90;;;;;;5027496;28;20004;-40
2021/12/16 06:28:23;;;;;;;;;;;6.60;99.90;;;;;;5032934;28;19936;-40
2021/12/16 06:30:50;;;;;;;;;;;6.60;99.90;;;;;;5019184;28;19928;-44
2021/12/16 06:33:17;;;;;;;;;;;6.60;99.90;;;;;;5016178;28;20012;-41
2021/12/16 06:35:44;;;;;;;;;;;6.60;99.90;;;;;;5003123;28;20016;-40
2021/12/16 06:38:11;;;;;;;;;;;6.70;99.90;;;;;;5002107;28;19995;-40
2021/12/16 06:40:38;;;;;;;;;;;6.70;99.90;;;;;;5009020;28;19944;-40
2021/12/16 06:43:10;;;;;;;;;;;6.70;99.90;;;;;;5010346;28;19928;-40
2021/12/16 06:45:42;;;;;;;;;;;6.70;99.90;;;;;;5011699;28;19929;-39
2021/12/16 06:48:12;;;;;;;;;;;6.70;99.90;;;;;;5027638;28;19921;-40
2021/12/16 06:50:46;;;;;;;;;;;6.80;99.90;;;;;;5028344;28;20304;-40
2021/12/16 06:53:17;;;;;;;;;;;6.80;99.90;;;;;;5010171;28;19968;-40
2021/12/16 06:55:49;;;;;;;;;;;6.80;99.90;;;;;;5005687;28;19928;-40
2021/12/16 06:58:22;;;;;;;;;;;6.80;99.90;;;;;;5030300;28;19921;-40
2021/12/16 07:01:00;;;;;;;;;;;6.80;99.90;;;;;;5013840;28;19921;-40
2021/12/16 07:03:33;;;;;;;;;;;6.90;99.90;;;;;;5026286;28;19931;-40
2021/12/16 07:06:00;;;;;;;;;;;6.90;99.90;;;;;;5031730;28;20239;-40
2021/12/16 07:08:27;;;;;;;;;;;6.90;99.90;;;;;;5031471;28;19971;-40
2021/12/16 07:10:54;;;;;;;;;;;6.90;99.90;;;;;;5008630;28;19921;-40
2021/12/16 07:13:35;;;;;;;;;;;6.90;99.90;;;;;;5010222;28;19925;-40
2021/12/16 07:16:03;;;;;;;;;;;6.90;99.90;;;;;;5015953;28;19931;-40
2021/12/16 07:18:30;;;;;;;;;;;6.90;99.90;;;;;;5016351;28;19979;-40
2021/12/16 07:20:57;;;;;;;;;;;7.00;99.90;;;;;;5032940;28;19927;-40
2021/12/16 07:23:23;;;;;;;;;;;7.00;99.90;;;;;;5032959;28;20403;-40
2021/12/16 07:25:50;;;;;;;;;;;7.00;99.90;;;;;;5032833;28;19925;-40
2021/12/16 07:28:17;;;;;;;;;;;7.00;99.90;;;;;;5033183;28;19920;-40
2021/12/16 07:30:44;;;;;;;;;;;7.00;99.90;;;;;;5013671;28;19995;-40
2021/12/16 07:33:13;;;;;;;;;;;7.00;99.90;;;;;;5012209;28;19921;-40
2021/12/16 07:35:40;;;;;;;;;;;7.00;99.90;;;;;;5012700;28;19975;-40
2021/12/16 07:38:06;;;;;;;;;;;6.90;99.90;;;;;;5032583;28;19921;-40
2021/12/16 07:40:33;;;;;;;;;;;7.00;99.90;;;;;;5013874;28;20305;-39
2021/12/16 07:43:11;;;;;;;;;;;7.00;99.90;;;;;;5012679;28;20381;-40
2021/12/16 07:45:39;;;;;;;;;;;6.90;99.90;;;;;;5013197;28;19928;-39
2021/12/16 07:48:05;;;;;;;;;;;6.90;99.90;;;;;;4969381;28;19925;-40
2021/12/16 07:50:34;;;;;;;;;;;6.90;99.90;;;;;;4993855;28;19922;-41
2021/12/16 07:53:00;;;;;;;;;;;6.90;99.90;;;;;;5025716;28;19925;-39
2021/12/16 07:55:27;;;;;;;;;;;6.90;99.90;;;;;;5029943;28;20290;-41
2021/12/16 07:57:54;;;;;;;;;;;6.90;99.90;;;;;;5032202;28;19975;-40
2021/12/16 08:00:21;;;;;;;;;;;6.80;99.90;;;;;;5003572;28;19922;-39
2021/12/16 08:02:48;;;;;;;;;;;6.80;99.90;;;;;;5013113;28;19921;-40
2021/12/16 08:05:15;;;;;;;;;;;6.80;99.90;;;;;;5000795;28;19921;-40
2021/12/16 08:07:43;;;;;;;;;;;6.80;99.90;;;;;;5011661;28;19921;-40
2021/12/16 08:10:11;;;;;;;;;;;6.80;99.90;;;;;;5011085;28;19932;-40
2021/12/16 08:12:38;;;;;;;;;;;6.80;99.90;;;;;;5012805;28;20480;-41
2021/12/16 08:15:05;;;;;;;;;;;6.80;99.90;;;;;;5011505;28;19972;-40
2021/12/16 08:17:31;;;;;;;;;;;6.80;99.90;;;;;;5012197;28;19973;-40
2021/12/16 08:19:58;;;;;;;;;;;6.80;99.90;;;;;;5003903;28;19925;-41
2021/12/16 08:22:25;;;;;;;;;;;6.80;99.90;;;;;;4992658;28;20369;-40
2021/12/16 08:24:53;;;;;;;;;;;6.90;99.90;;;;;;4991730;28;19921;-40
2021/12/16 08:27:20;;;;;;;;;;;6.80;99.90;;;;;;4991403;28;19928;-41
2021/12/16 08:29:47;;;;;;;;;;;6.90;99.90;;;;;;4993300;28;19921;-41
2021/12/16 08:32:13;;;;;;;;;;;6.90;99.90;;;;;;4995329;28;20004;-40
2021/12/16 08:34:42;;;;;;;;;;;6.90;99.90;;;;;;4993064;28;20428;-41
2021/12/16 08:37:09;;;;;;;;;;;7.00;99.90;;;;;;4991983;28;19922;-41
2021/12/16 08:39:36;;;;;;;;;;;7.00;99.90;;;;;;4997623;28;19922;-40
2021/12/16 08:42:05;;;;;;;;;;;7.00;99.90;;;;;;5010835;28;19964;-40
2021/12/16 08:44:32;;;;;;;;;;;7.00;99.90;;;;;;5010663;28;19964;-40
2021/12/16 08:47:00;;;;;;;;;;;7.10;99.90;;;;;;5007285;28;19921;-40
2021/12/16 08:49:27;;;;;;;;;;;7.10;99.90;;;;;;5010600;28;20012;-41
2021/12/16 08:51:57;;;;;;;;;;;7.20;99.90;;;;;;4999053;28;19935;-43
2021/12/16 08:54:24;;;;;;;;;;;7.20;99.90;;;;;;5009608;28;20305;-41
2021/12/16 08:56:50;;;;;;;;;;;7.20;99.90;;;;;;5009303;28;20324;-41
2021/12/16 08:59:19;;;;;;;;;;;7.20;99.90;;;;;;5010812;28;19922;-40
2021/12/16 09:01:46;;;;;;;;;;;7.30;99.90;;;;;;5011988;28;19975;-40
2021/12/16 09:04:15;;;;;;;;;;;7.30;99.90;;;;;;5010553;28;20027;-41
2021/12/16 09:06:41;;;;;;;;;;;7.30;99.90;;;;;;5007773;28;19972;-40
2021/12/16 09:09:08;;;;;;;;;;;7.30;99.90;;;;;;4996933;28;20428;-42
2021/12/16 09:11:40;;;;;;;;;;;7.40;99.90;;;;;;4992199;28;20389;-41
2021/12/16 09:14:06;;;;;;;;;;;7.40;99.90;;;;;;4992719;28;19933;-41
2021/12/16 09:16:35;;;;;;;;;;;7.40;99.90;;;;;;5001532;28;20345;-41
2021/12/16 09:19:02;;;;;;;;;;;7.40;99.90;;;;;;5010144;28;19977;-42
2021/12/16 09:21:30;;;;;;;;;;;7.50;99.90;;;;;;5010597;28;20405;-40
2021/12/16 09:23:56;;;;;;;;;;;7.50;99.90;;;;;;5011096;28;19976;-42
2021/12/16 09:26:23;;;;;;;;;;;7.50;99.90;;;;;;5011991;28;19921;-41
2021/12/16 09:28:50;;;;;;;;;;;7.60;99.90;;;;;;5014120;28;19925;-42
2021/12/16 09:31:17;;;;;;;;;;;7.50;99.90;;;;;;4998049;28;19922;-41
2021/12/16 09:33:47;;;;;;;;;;;7.60;99.90;;;;;;4996382;28;19922;-42
2021/12/16 09:36:14;;;;;;;;;;;7.60;99.90;;;;;;4996453;28;20038;-42
2021/12/16 09:38:41;;;;;;;;;;;7.60;99.90;;;;;;5012756;28;19922;-41
2021/12/16 09:41:08;;;;;;;;;;;7.60;99.90;;;;;;5015358;28;20019;-44
2021/12/16 09:43:35;;;;;;;;;;;7.70;99.90;;;;;;5015492;28;19973;-41
2021/12/16 09:46:04;;;;;;;;;;;7.70;99.90;;;;;;5015420;28;19921;-43
2021/12/16 09:48:31;;;;;;;;;;;7.70;99.90;;;;;;5013082;28;19979;-41
2021/12/16 09:51:00;;;;;;;;;;;7.80;99.90;;;;;;5011323;28;19929;-42
2021/12/16 09:53:28;;;;;;;;;;;7.80;99.90;;;;;;5005693;28;19965;-42
2021/12/16 09:55:58;;;;;;;;;;;7.80;99.90;;;;;;5009014;28;19975;-41
2021/12/16 09:58:25;;;;;;;;;;;7.90;99.90;;;;;;5014402;28;19921;-41
2021/12/16 10:00:52;;;;;;;;;;;7.90;99.90;;;;;;5014846;28;19951;-41
2021/12/16 10:03:19;;;;;;;;;;;7.90;99.90;;;;;;5014324;28;19925;-39
2021/12/16 10:05:46;;;;;;;;;;;7.90;99.90;;;;;;5014423;28;19925;-41
2021/12/16 10:08:14;;;;;;;;;;;7.90;99.90;;;;;;5026298;28;19921;-40
2021/12/16 10:10:42;;;;;;;;;;;7.90;99.90;;;;;;5017059;28;19928;-39
2021/12/16 10:13:09;;;;;;;;;;;8.00;99.90;;;;;;5017481;28;20018;-40
2021/12/16 10:18:21;;;;;;;;;;;8.00;99.90;;;;;;5034452;28;20008;-40
2021/12/16 10:20:49;;;;;;;;;;;8.00;99.90;;;;;;5033931;28;19921;-40
2021/12/16 10:23:19;;;;;;;;;;;8.00;99.90;;;;;;5034439;28;20364;-40
2021/12/16 10:25:46;;;;;;;;;;;8.00;99.90;;;;;;5033950;28;19974;-40
2021/12/16 10:28:14;;;;;;;;;;;8.10;99.90;;;;;;5016830;28;20427;-40
2021/12/16 10:30:45;;;;;;;;;;;8.10;99.90;;;;;;5033655;28;20600;-40
2021/12/16 10:33:13;;;;;;;;;;;8.20;99.90;;;;;;5033806;28;20361;-40
2021/12/16 10:35:40;;;;;;;;;;;8.20;99.90;;;;;;5033692;28;20224;-40
2021/12/16 10:38:07;;;;;;;;;;;8.20;99.90;;;;;;5034310;28;19921;-40
2021/12/16 10:40:37;;;;;;;;;;;8.20;99.90;;;;;;5016494;28;19921;-40
2021/12/16 10:43:06;;;;;;;;;;;8.20;99.90;;;;;;5033666;28;19952;-40
2021/12/16 10:45:35;;;;;;;;;;;8.20;99.90;;;;;;5016046;28;19971;-40
2021/12/16 10:48:15;;;;;;;;;;;8.20;99.90;;;;;;5033427;28;20376;-40
2021/12/16 10:50:57;;;;;;;;;;;8.20;99.90;;;;;;5033632;28;19933;-40
2021/12/16 10:53:48;;;;;;;;;;;8.20;99.90;;;;;;5016564;28;19925;-40
2021/12/16 10:56:16;;;;;;;;;;;8.20;99.90;;;;;;5018924;28;19921;-40
2021/12/16 10:58:53;;;;;;;;;;;8.20;99.90;;;;;;5015953;28;19979;-40
2021/12/16 11:01:34;;;;;;;;;;;8.30;99.90;;;;;;4996741;28;19967;-40
2021/12/16 11:04:01;;;;;;;;;;;8.30;99.90;;;;;;5025790;28;19925;-41
2021/12/16 11:06:28;;;;;;;;;;;8.30;99.90;;;;;;5033759;28;19921;-40
2021/12/16 11:08:54;;;;;;;;;;;8.30;99.90;;;;;;5015320;28;19975;-43
2021/12/16 11:11:28;;;;;;;;;;;8.30;99.90;;;;;;5030556;28;19975;-41
2021/12/16 11:14:02;;;;;;;;;;;8.30;99.90;;;;;;5032114;28;19924;-41
2021/12/16 11:16:32;;;;;;;;;;;8.30;99.90;;;;;;5015493;28;20004;-41
2021/12/16 11:18:59;;;;;;;;;;;8.40;99.90;;;;;;5011187;28;19921;-41
2021/12/16 11:21:31;;;;;;;;;;;8.30;99.90;;;;;;5032972;28;19956;-40
2021/12/16 11:23:58;;;;;;;;;;;8.40;99.90;;;;;;5005873;28;19929;-40
2021/12/16 11:26:29;;;;;;;;;;;8.40;99.90;;;;;;4996528;28;19921;-40
2021/12/16 11:28:56;;;;;;;;;;;8.40;99.90;;;;;;4999655;28;19925;-40
2021/12/16 11:31:23;;;;;;;;;;;8.50;99.90;;;;;;5013800;28;19967;-40
2021/12/16 11:33:51;;;;;;;;;;;8.50;99.90;;;;;;5033718;28;19925;-40
2021/12/16 11:36:18;;;;;;;;;;;8.50;99.90;;;;;;5017090;28;19947;-40
2021/12/16 11:38:45;;;;;;;;;;;8.50;99.90;;;;;;5032931;28;20004;-41
2021/12/16 11:41:13;;;;;;;;;;;8.50;99.90;;;;;;5015334;28;19974;-40
2021/12/16 11:43:53;;;;;;;;;;;8.60;99.90;;;;;;5014864;28;20384;-40
2021/12/16 11:46:21;;;;;;;;;;;8.60;99.90;;;;;;5016493;28;19921;-41
2021/12/16 11:48:48;;;;;;;;;;;8.60;99.90;;;;;;5015558;28;19927;-43
2021/12/16 11:51:17;;;;;;;;;;;8.70;99.90;;;;;;5014718;28;20012;-41
2021/12/16 11:53:46;;;;;;;;;;;8.70;99.90;;;;;;5016469;28;19964;-40
2021/12/16 11:56:13;;;;;;;;;;;8.70;99.90;;;;;;5014341;28;20373;-41
2021/12/16 11:58:41;;;;;;;;;;;8.70;99.90;;;;;;5003336;28;19921;-41
2021/12/16 12:01:14;;;;;;;;;;;8.80;99.90;;;;;;5032808;28;19944;-41
2021/12/16 12:03:41;;;;;;;;;;;8.70;99.90;;;;;;5033450;28;20426;-41
2021/12/16 12:06:07;;;;;;;;;;;8.70;99.90;;;;;;5014928;28;19921;-41
2021/12/16 12:08:35;;;;;;;;;;;8.70;99.90;;;;;;5033690;28;19967;-41
2021/12/16 12:11:06;;;;;;;;;;;8.80;99.90;;;;;;5014661;28;19982;-40
2021/12/16 12:13:35;;;;;;;;;;;8.70;99.90;;;;;;5016166;28;19928;-41
2021/12/16 12:16:02;;;;;;;;;;;8.70;99.90;;;;;;5006824;28;19991;-41
2021/12/16 12:18:32;;;;;;;;;;;8.70;99.90;;;;;;5003238;28;20374;-41
2021/12/16 12:21:13;;;;;;;;;;;8.80;99.90;;;;;;5023327;28;20023;-41
2021/12/16 12:23:40;;;;;;;;;;;8.80;99.90;;;;;;5028185;28;20022;-41
2021/12/16 12:26:07;;;;;;;;;;;8.80;99.90;;;;;;5031185;28;19927;-41
2021/12/16 12:28:33;;;;;;;;;;;8.80;99.90;;;;;;5033152;28;19925;-41
2021/12/16 12:31:00;;;;;;;;;;;8.80;99.90;;;;;;5033294;28;20011;-41
2021/12/16 12:33:27;;;;;;;;;;;8.80;99.90;;;;;;5032883;28;19975;-41
2021/12/16 12:35:55;;;;;;;;;;;8.80;99.90;;;;;;5013863;28;19921;-41
2021/12/16 12:38:22;;;;;;;;;;;8.80;99.90;;;;;;4995945;28;19972;-41
2021/12/16 12:40:49;;;;;;;;;;;8.80;99.90;;;;;;5013391;28;20008;-41
2021/12/16 12:43:16;;;;;;;;;;;8.80;99.90;;;;;;4995762;28;19923;-41
2021/12/16 12:45:43;;;;;;;;;;;8.80;99.90;;;;;;5008212;28;19925;-40
2021/12/16 12:48:11;;;;;;;;;;;8.90;99.90;;;;;;5016713;28;19967;-41
2021/12/16 12:50:38;;;;;;;;;;;8.90;99.90;;;;;;4997500;28;20324;-41
2021/12/16 12:53:12;;;;;;;;;;;8.90;99.90;;;;;;5013559;28;20266;-40
2021/12/16 12:55:39;;;;;;;;;;;8.90;99.90;;;;;;5012610;28;19921;-40
2021/12/16 12:58:06;;;;;;;;;;;8.90;99.90;;;;;;5015930;28;20416;-40
2021/12/16 13:00:33;;;;;;;;;;;8.90;99.90;;;;;;5014992;28;20008;-40
2021/12/16 13:03:01;;;;;;;;;;;9.00;99.90;;;;;;5017712;28;19967;-40
2021/12/16 13:05:27;;;;;;;;;;;9.00;99.90;;;;;;5015199;28;19952;-39
2021/12/16 13:07:55;;;;;;;;;;;9.00;99.90;;;;;;5035665;28;20346;-40
2021/12/16 13:10:24;;;;;;;;;;;9.00;99.90;;;;;;4999771;28;19921;-40
2021/12/16 13:12:55;;;;;;;;;;;9.00;99.90;;;;;;4999635;28;19952;-40
2021/12/16 13:15:32;;;;;;;;;;;9.00;99.90;;;;;;5027104;28;20396;-39
2021/12/16 13:23:36;;;;;;;;;;;9.00;99.90;;;;;;5036243;28;19925;-40
2021/12/16 13:29:01;;;;;;;;;;;9.10;99.90;;;;;;4999471;28;19921;-40
2021/12/16 13:31:31;;;;;;;;;;;9.10;99.90;;;;;;5019941;28;19921;-40
2021/12/16 13:33:59;;;;;;;;;;;9.10;99.90;;;;;;4999335;28;19926;-41
2021/12/16 13:36:39;;;;;;;;;;;9.10;99.90;;;;;;5007960;28;20293;-41
2021/12/16 13:39:08;;;;;;;;;;;9.10;99.90;;;;;;5018805;28;19921;-42
2021/12/16 13:41:37;;;;;;;;;;;9.00;99.90;;;;;;5001555;28;19972;-41
2021/12/16 13:44:06;;;;;;;;;;;9.00;99.90;;;;;;4998837;28;19921;-40
2021/12/16 13:46:49;;;;;;;;;;;9.10;99.90;;;;;;4998948;28;19928;-41
2021/12/16 14:03:20;;;;;;;;;;;8.90;99.90;;;;;;5016191;28;20012;-42
2021/12/16 14:05:55;;;;;;;;;;;8.90;99.90;;;;;;5016277;28;20364;-40
2021/12/16 14:08:31;;;;;;;;;;;8.90;99.90;;;;;;5015983;28;20357;-41
2021/12/16 14:11:04;;;;;;;;;;;8.90;99.90;;;;;;5026103;28;19932;-41
2021/12/16 14:16:33;;;;;;;;;;;8.90;99.90;;;;;;5004690;28;19995;-41
2021/12/16 14:24:47;;;;;;;;;;;8.80;99.90;;;;;;5017187;28;19929;-40
2021/12/16 14:31:04;;;;;;;;;;;8.80;99.90;;;;;;5034481;28;20014;-40
2021/12/16 14:35:49;;;;;;;;;;;8.70;99.90;;;;;;5014999;28;19921;-41
2021/12/16 14:38:38;;;;;;;;;;;8.70;99.90;;;;;;5026411;28;19925;-40
2021/12/16 14:41:09;;;;;;;;;;;8.70;99.90;;;;;;5001875;28;19924;-43
2021/12/16 14:43:40;;;;;;;;;;;8.70;99.90;;;;;;5017027;28;19967;-43
2021/12/16 14:46:11;;;;;;;;;;;8.70;99.90;;;;;;5016557;28;19921;-41
2021/12/16 14:48:38;;;;;;;;;;;8.70;99.90;;;;;;5035091;28;19928;-41
2021/12/16 14:51:05;;;;;;;;;;;8.70;99.90;;;;;;5017141;28;20316;-41
2021/12/16 14:53:34;;;;;;;;;;;8.70;99.90;;;;;;5033958;28;19980;-40
2021/12/16 14:56:01;;;;;;;;;;;8.70;99.90;;;;;;5034611;28;20332;-40
2021/12/16 14:58:28;;;;;;;;;;;8.70;99.90;;;;;;5017271;28;19967;-42
2021/12/16 15:00:56;;;;;;;;;;;8.60;99.90;;;;;;5034618;28;19927;-41
2021/12/16 15:03:26;;;;;;;;;;;8.70;99.90;;;;;;5027157;28;20412;-41
2021/12/16 15:05:54;;;;;;;;;;;8.60;99.90;;;;;;5017135;28;19925;-42
2021/12/16 15:08:26;;;;;;;;;;;8.60;99.90;;;;;;5034500;28;20304;-40
2021/12/16 15:10:53;;;;;;;;;;;8.60;99.90;;;;;;5034492;28;20274;-40
2021/12/16 15:13:25;;;;;;;;;;;8.70;99.90;;;;;;5016776;28;19921;-41
2021/12/16 15:16:11;;;;;;;;;;;8.60;99.90;;;;;;5034596;28;19987;-42
2021/12/16 15:40:41;;;;;;;;;;;8.60;99.90;;;;;;5017984;28;19931;-41
2021/12/16 15:43:08;;;;;;;;;;;8.60;99.90;;;;;;5031690;28;20377;-41
2021/12/16 15:45:39;;;;;;;;;;;8.50;99.90;;;;;;5033722;28;19928;-42
2021/12/16 15:48:09;;;;;;;;;;;8.60;99.90;;;;;;5015641;28;20266;-40
2021/12/16 15:50:38;;;;;;;;;;;8.60;99.90;;;;;;5029463;28;20466;-40
2021/12/16 15:53:06;;;;;;;;;;;8.50;99.90;;;;;;5017353;28;19975;-39
2021/12/16 15:55:34;;;;;;;;;;;8.60;99.90;;;;;;5006941;28;19999;-41
2021/12/16 15:58:01;;;;;;;;;;;8.60;99.90;;;;;;5025594;28;19925;-39
2021/12/16 16:00:28;;;;;;;;;;;8.60;99.90;;;;;;5010665;28;19921;-39
2021/12/16 16:02:59;;;;;;;;;;;8.50;99.90;;;;;;5012625;28;19925;-39
2021/12/16 16:05:30;;;;;;;;;;;8.60;99.90;;;;;;5008653;28;19921;-40
2021/12/16 16:07:59;;;;;;;;;;;8.50;99.90;;;;;;5011987;28;19925;-40
2021/12/16 16:10:26;;;;;;;;;;;8.60;99.90;;;;;;5013777;28;19929;-40
2021/12/16 16:12:53;;;;;;;;;;;8.60;99.90;;;;;;5022753;28;19921;-40
2021/12/16 16:15:22;;;;;;;;;;;8.60;99.90;;;;;;5013227;28;20367;-41
2021/12/16 16:18:01;;;;;;;;;;;8.50;99.90;;;;;;5010588;28;19925;-40
2021/12/16 16:20:28;;;;;;;;;;;8.60;99.90;;;;;;5030230;28;20016;-41
2021/12/16 16:22:55;;;;;;;;;;;8.50;99.90;;;;;;5025749;28;20017;-42
2021/12/16 16:25:24;;;;;;;;;;;8.50;99.90;;;;;;5011119;28;19951;-42
2021/12/16 16:27:50;;;;;;;;;;;8.50;99.90;;;;;;5024826;28;19943;-40
2021/12/16 16:30:18;;;;;;;;;;;8.50;99.90;;;;;;5028039;28;19927;-40
2021/12/16 16:33:03;;;;;;;;;;;8.50;99.90;;;;;;5014873;28;20004;-41
2021/12/16 16:35:30;;;;;;;;;;;8.50;99.90;;;;;;5022770;28;19944;-40
2021/12/16 16:38:07;;;;;;;;;;;8.50;99.90;;;;;;5022407;28;20381;-40
2021/12/16 16:40:37;;;;;;;;;;;8.50;99.90;;;;;;5023195;28;19986;-40
2021/12/16 16:43:06;;;;;;;;;;;8.50;99.90;;;;;;5029141;28;20525;-40
2021/12/16 16:45:33;;;;;;;;;;;8.50;99.90;;;;;;5017430;28;19929;-41
2021/12/16 16:48:15;;;;;;;;;;;8.50;99.90;;;;;;5014221;28;19921;-39
2021/12/16 16:50:42;;;;;;;;;;;8.50;99.90;;;;;;5032161;28;19925;-40
2021/12/16 16:53:09;;;;;;;;;;;8.50;99.90;;;;;;5031653;28;19921;-39
2021/12/16 16:55:37;;;;;;;;;;;8.50;99.90;;;;;;5003926;28;19921;-40
2021/12/16 16:58:04;;;;;;;;;;;8.50;99.90;;;;;;4998948;28;19925;-39
2021/12/16 17:00:31;;;;;;;;;;;8.50;99.90;;;;;;5028402;28;19921;-41
2021/12/16 17:02:59;;;;;;;;;;;8.50;99.90;;;;;;5013939;28;19951;-40
2021/12/16 17:05:27;;;;;;;;;;;8.50;99.90;;;;;;5031455;28;19968;-39
2021/12/16 17:07:54;;;;;;;;;;;8.50;99.90;;;;;;5024155;28;19971;-40
2021/12/16 17:10:21;;;;;;;;;;;8.50;99.90;;;;;;5011031;28;19921;-40
2021/12/16 17:12:50;;;;;;;;;;;8.50;99.90;;;;;;5031192;28;20292;-40
2021/12/16 17:15:33;;;;;;;;;;;8.50;99.90;;;;;;5032088;28;19964;-39
2021/12/16 17:17:59;;;;;;;;;;;8.50;99.90;;;;;;5028714;28;19967;-39
2021/12/16 17:20:26;;;;;;;;;;;8.50;99.90;;;;;;5015110;28;19982;-39
2021/12/16 17:22:55;;;;;;;;;;;8.50;99.90;;;;;;5026730;28;20295;-39
2021/12/16 17:25:21;;;;;;;;;;;8.50;99.90;;;;;;5005691;28;19928;-41
2021/12/16 17:27:52;;;;;;;;;;;8.50;99.90;;;;;;5030938;28;20323;-43
2021/12/16 17:30:20;;;;;;;;;;;8.50;99.90;;;;;;5021440;28;19921;-41